createdAt,value
2019-04-07T00:00:50.566Z,7.90
2019-04-07T00:03:19.959Z,7.80
2019-04-07T00:05:49.741Z,7.80
2019-04-07T00:08:19.376Z,7.80
2019-04-07T00:10:48.775Z,7.70
2019-04-07T00:13:18.457Z,7.70
2019-04-07T00:15:47.869Z,7.80
2019-04-07T00:18:17.902Z,7.70
2019-04-07T00:20:47.652Z,7.70
2019-04-07T00:23:17.620Z,7.70
2019-04-07T00:25:46.982Z,7.70
2019-04-07T00:28:16.399Z,7.70
2019-04-07T00:30:46.096Z,7.70
2019-04-07T00:33:15.504Z,7.70
2019-04-07T00:35:44.874Z,7.60
2019-04-07T00:38:15.011Z,7.50
2019-04-07T00:40:45.108Z,7.50
2019-04-07T00:43:15.358Z,7.50
2019-04-07T00:45:44.759Z,7.50
2019-04-07T00:48:14.864Z,7.50
2019-04-07T00:50:44.900Z,7.50
2019-04-07T00:53:14.496Z,7.50
2019-04-07T00:55:43.947Z,7.60
2019-04-07T00:58:13.731Z,7.80
2019-04-07T01:00:43.462Z,7.80
2019-04-07T01:03:12.941Z,7.80
2019-04-07T01:05:43.445Z,7.70
2019-04-07T01:08:12.934Z,7.70
2019-04-07T01:10:42.724Z,7.60
2019-04-07T01:13:12.149Z,7.60
2019-04-07T01:15:41.835Z,7.60
2019-04-07T01:18:11.305Z,7.50
2019-04-07T01:20:40.708Z,7.50
2019-04-07T01:23:10.613Z,7.50
2019-04-07T01:25:40.011Z,7.40
2019-04-07T01:28:09.812Z,7.30
2019-04-07T01:30:39.171Z,7.20
2019-04-07T01:33:08.746Z,7.10
2019-04-07T01:35:47.453Z,6.90
2019-04-07T01:38:09.440Z,6.90
2019-04-07T01:40:39.124Z,6.80
2019-04-07T01:43:17.491Z,6.60
2019-04-07T01:46:08.940Z,6.50
2019-04-07T01:49:01.060Z,6.50
2019-04-07T01:51:55.530Z,6.20
2019-04-07T01:54:44.749Z,6.10
2019-04-07T01:57:30.325Z,6.00
2019-04-07T02:00:18.851Z,6.10
2019-04-07T02:03:09.993Z,6.00
2019-04-07T02:06:01.626Z,5.90
2019-04-07T02:08:46.362Z,5.90
2019-04-07T02:11:28.740Z,6.00
2019-04-07T02:14:15.913Z,6.00
2019-04-07T02:17:16.158Z,6.00
2019-04-07T02:19:54.954Z,6.00
2019-04-07T02:22:44.404Z,6.10
2019-04-07T02:25:31.760Z,6.20
2019-04-07T02:28:38.336Z,6.20
2019-04-07T02:31:35.975Z,6.20
2019-04-07T02:34:34.046Z,6.20
2019-04-07T02:37:24.389Z,6.20
2019-04-07T02:40:11.986Z,6.10
2019-04-07T02:43:05.151Z,6.10
2019-04-07T02:45:43.192Z,6.10
2019-04-07T02:48:20.354Z,6.10
2019-04-07T02:51:07.649Z,6.10
2019-04-07T02:54:02.525Z,6.00
2019-04-07T02:56:56.996Z,5.80
2019-04-07T02:59:42.977Z,5.90
2019-04-07T03:02:31.789Z,5.80
2019-04-07T03:05:13.918Z,5.80
2019-04-07T03:08:04.727Z,5.70
2019-04-07T03:10:57.085Z,5.70
2019-04-07T03:13:46.403Z,5.80
2019-04-07T03:16:44.960Z,5.80
2019-04-07T03:19:19.317Z,5.80
2019-04-07T03:21:59.598Z,5.90
2019-04-07T03:24:39.046Z,5.90
2019-04-07T03:27:25.999Z,5.80
2019-04-07T03:30:32.513Z,5.60
2019-04-07T03:33:33.411Z,5.50
2019-04-07T03:36:15.096Z,5.50
2019-04-07T03:39:10.850Z,5.50
2019-04-07T03:41:56.254Z,5.40
2019-04-07T03:44:32.295Z,5.40
2019-04-07T03:47:10.121Z,5.40
2019-04-07T03:49:57.229Z,5.40
2019-04-07T03:53:03.409Z,5.40
2019-04-07T03:56:01.788Z,5.40
2019-04-07T03:58:41.633Z,5.40
2019-04-07T04:01:22.211Z,5.40
2019-04-07T04:04:00.733Z,5.50
2019-04-07T04:07:16.350Z,5.60
2019-04-07T04:09:40.918Z,5.70
2019-04-07T04:12:37.871Z,5.60
2019-04-07T04:15:11.487Z,5.60
2019-04-07T04:17:41.305Z,5.60
2019-04-07T04:20:11.005Z,5.60
2019-04-07T04:22:40.679Z,5.60
2019-04-07T04:25:10.699Z,5.60
2019-04-07T04:27:40.178Z,5.50
2019-04-07T04:30:10.835Z,5.50
2019-04-07T04:32:41.468Z,5.50
2019-04-07T04:35:11.386Z,5.50
2019-04-07T04:37:46.626Z,5.60
2019-04-07T04:40:12.571Z,5.70
2019-04-07T04:42:42.144Z,5.60
2019-04-07T04:45:11.799Z,5.60
2019-04-07T04:47:41.191Z,5.60
2019-04-07T04:50:10.981Z,5.70
2019-04-07T04:52:40.945Z,5.90
2019-04-07T04:55:11.229Z,5.90
2019-04-07T04:57:40.760Z,6.00
2019-04-07T05:00:10.776Z,6.00
2019-04-07T05:02:40.163Z,6.00
2019-04-07T05:05:10.788Z,6.20
2019-04-07T05:07:49.962Z,6.20
2019-04-07T05:10:12.168Z,6.40
2019-04-07T05:12:42.001Z,6.60
2019-04-07T05:15:11.989Z,6.70
2019-04-07T05:17:42.028Z,6.70
2019-04-07T05:20:12.395Z,6.60
2019-04-07T05:22:42.178Z,6.60
2019-04-07T05:25:12.058Z,6.70
2019-04-07T05:27:41.667Z,6.70
2019-04-07T05:30:11.239Z,6.60
2019-04-07T05:32:41.767Z,6.70
2019-04-07T05:35:11.188Z,6.80
2019-04-07T05:37:41.704Z,7.00
2019-04-07T05:40:11.355Z,7.00
2019-04-07T05:42:40.799Z,7.10
2019-04-07T05:45:10.217Z,7.10
2019-04-07T05:47:43.617Z,7.20
2019-04-07T05:50:11.124Z,7.20
2019-04-07T05:52:40.885Z,7.30
2019-04-07T05:55:10.902Z,7.40
2019-04-07T05:57:40.751Z,7.50
2019-04-07T06:00:15.638Z,7.60
2019-04-07T06:02:42.945Z,7.60
2019-04-07T06:05:12.407Z,7.70
2019-04-07T06:07:42.554Z,7.90
2019-04-07T06:10:12.099Z,8.00
2019-04-07T06:12:43.901Z,8.10
2019-04-07T06:15:12.881Z,8.20
2019-04-07T06:17:42.415Z,8.30
2019-04-07T06:20:15.030Z,8.40
2019-04-07T06:22:43.049Z,8.50
2019-04-07T06:25:13.356Z,8.60
2019-04-07T06:27:45.358Z,8.70
2019-04-07T06:30:14.587Z,8.70
2019-04-07T06:32:44.662Z,8.60
2019-04-07T06:35:14.242Z,8.70
2019-04-07T06:37:43.604Z,8.70
2019-04-07T06:40:13.962Z,8.90
2019-04-07T06:42:45.696Z,9.00
2019-04-07T06:45:22.767Z,9.20
2019-04-07T06:47:57.548Z,9.30
2019-04-07T06:50:54.648Z,9.60
2019-04-07T06:53:33.807Z,9.80
2019-04-07T06:56:22.205Z,9.70
2019-04-07T06:59:15.598Z,10.00
2019-04-07T07:02:13.249Z,10.10
2019-04-07T07:05:05.115Z,10.20
2019-04-07T07:07:59.710Z,10.00
2019-04-07T07:10:57.351Z,10.00
2019-04-07T07:13:52.003Z,10.00
2019-04-07T07:16:50.012Z,10.00
2019-04-07T07:19:42.238Z,10.00
2019-04-07T07:22:17.488Z,10.10
2019-04-07T07:24:47.733Z,9.90
2019-04-07T07:27:17.879Z,10.00
2019-04-07T07:29:47.937Z,10.00
2019-04-07T07:32:19.134Z,10.00
2019-04-07T07:34:48.800Z,9.80
2019-04-07T07:37:18.503Z,9.70
2019-04-07T07:39:48.713Z,9.90
2019-04-07T07:42:21.407Z,9.90
2019-04-07T07:44:50.343Z,10.00
2019-04-07T07:47:21.803Z,10.10
2019-04-07T07:49:51.995Z,10.40
2019-04-07T07:52:21.978Z,10.60
2019-04-07T07:54:51.910Z,10.70
2019-04-07T07:57:23.731Z,10.80
2019-04-07T07:59:52.388Z,10.90
2019-04-07T08:02:22.165Z,11.00
2019-04-07T08:04:52.816Z,11.30
2019-04-07T08:07:22.644Z,11.50
2019-04-07T08:09:54.291Z,11.70
2019-04-07T08:12:23.842Z,11.90
2019-04-07T08:14:56.356Z,12.10
2019-04-07T08:17:24.830Z,12.20
2019-04-07T08:19:55.622Z,12.30
2019-04-07T08:22:29.899Z,12.60
2019-04-07T08:24:56.204Z,12.90
2019-04-07T08:27:29.900Z,12.70
2019-04-07T08:29:57.207Z,13.10
2019-04-07T08:32:29.645Z,13.00
2019-04-07T08:35:01.470Z,12.70
2019-04-07T08:37:28.820Z,12.50
2019-04-07T08:39:59.397Z,12.70
2019-04-07T08:42:28.863Z,13.10
2019-04-07T08:44:59.683Z,13.20
2019-04-07T08:47:30.178Z,13.00
2019-04-07T08:50:00.028Z,13.10
2019-04-07T08:52:29.437Z,13.00
2019-04-07T08:54:59.212Z,13.40
2019-04-07T08:57:30.548Z,13.60
2019-04-07T08:59:59.700Z,13.50
2019-04-07T09:02:30.360Z,13.70
2019-04-07T09:05:00.315Z,13.70
2019-04-07T09:07:31.006Z,13.50
2019-04-07T09:10:01.091Z,13.50
2019-04-07T09:12:31.967Z,13.50
2019-04-07T09:15:04.873Z,13.50
2019-04-07T09:17:46.139Z,13.30
2019-04-07T09:20:32.093Z,13.10
2019-04-07T09:23:20.455Z,13.00
2019-04-07T09:26:10.130Z,13.00
2019-04-07T09:28:57.445Z,13.40
2019-04-07T09:31:52.933Z,13.50
2019-04-07T09:34:50.537Z,13.50
2019-04-07T09:37:28.397Z,13.40
2019-04-07T09:40:22.568Z,13.30
2019-04-07T09:43:10.045Z,13.00
2019-04-07T09:46:01.585Z,13.10
2019-04-07T09:48:39.386Z,13.10
2019-04-07T09:51:26.573Z,13.10
2019-04-07T09:54:20.638Z,12.90
2019-04-07T09:56:58.763Z,12.80
2019-04-07T09:59:36.221Z,13.00
2019-04-07T10:02:23.026Z,13.30
2019-04-07T10:05:02.106Z,13.30
2019-04-07T10:07:46.849Z,13.30
2019-04-07T10:10:33.925Z,13.50
2019-04-07T10:13:20.189Z,13.70
2019-04-07T10:15:58.005Z,13.80
2019-04-07T10:18:58.654Z,14.10
2019-04-07T10:21:49.833Z,14.30
2019-04-07T10:24:37.077Z,14.20
2019-04-07T10:27:40.312Z,14.30
2019-04-07T10:30:17.463Z,14.50
2019-04-07T10:33:12.184Z,14.70
2019-04-07T10:36:03.322Z,15.00
2019-04-07T10:38:51.688Z,15.00
2019-04-07T10:41:42.858Z,15.20
2019-04-07T10:44:34.241Z,15.30
2019-04-07T10:47:31.965Z,14.90
2019-04-07T10:50:21.105Z,15.40
2019-04-07T10:53:00.943Z,15.60
2019-04-07T10:55:56.328Z,15.70
2019-04-07T10:58:32.409Z,16.10
2019-04-07T11:01:23.533Z,16.10
2019-04-07T11:04:03.911Z,16.30
2019-04-07T11:07:07.018Z,16.00
2019-04-07T11:09:49.509Z,16.20
2019-04-07T11:12:36.784Z,15.90
2019-04-07T11:15:30.666Z,16.00
2019-04-07T11:18:22.692Z,16.00
2019-04-07T11:21:23.767Z,15.70
2019-04-07T11:24:22.056Z,15.90
2019-04-07T11:27:13.504Z,16.10
2019-04-07T11:29:50.703Z,16.50
2019-04-07T11:32:42.126Z,16.60
2019-04-07T11:35:45.583Z,16.60
2019-04-07T11:38:39.581Z,16.80
2019-04-07T11:41:30.698Z,17.20
2019-04-07T11:44:22.826Z,17.60
2019-04-07T11:46:57.557Z,17.40
2019-04-07T11:49:33.575Z,17.20
2019-04-07T11:52:22.435Z,17.20
2019-04-07T11:55:14.127Z,16.80
2019-04-07T11:58:14.865Z,16.90
2019-04-07T12:01:05.735Z,16.80
2019-04-07T12:04:03.429Z,17.10
2019-04-07T12:06:41.024Z,17.30
2019-04-07T12:09:17.581Z,16.90
2019-04-07T12:11:57.106Z,17.00
2019-04-07T12:14:37.384Z,17.40
2019-04-07T12:17:34.844Z,17.10
2019-04-07T12:20:35.305Z,17.60
2019-04-07T12:23:26.486Z,17.40
2019-04-07T12:26:14.188Z,17.20
2019-04-07T12:28:53.750Z,17.40
2019-04-07T12:31:35.889Z,17.20
2019-04-07T12:34:33.332Z,17.40
2019-04-07T12:37:28.417Z,17.50
2019-04-07T12:40:05.479Z,17.40
2019-04-07T12:42:52.344Z,17.40
2019-04-07T12:45:36.130Z,17.70
2019-04-07T12:48:30.032Z,18.00
2019-04-07T12:51:19.888Z,17.90
2019-04-07T12:54:07.344Z,17.60
2019-04-07T12:56:57.927Z,17.70
2019-04-07T12:59:50.073Z,17.60
2019-04-07T13:02:51.644Z,17.40
2019-04-07T13:05:38.003Z,17.60
2019-04-07T13:08:30.451Z,17.80
2019-04-07T13:11:40.106Z,17.50
2019-04-07T13:14:24.890Z,17.20
2019-04-07T13:17:07.358Z,17.10
2019-04-07T13:20:06.138Z,17.30
2019-04-07T13:23:09.791Z,17.50
2019-04-07T13:25:53.169Z,17.50
2019-04-07T13:28:26.040Z,17.40
2019-04-07T13:31:33.110Z,17.40
2019-04-07T13:34:24.504Z,17.40
2019-04-07T13:37:31.305Z,17.30
2019-04-07T13:40:22.843Z,17.20
2019-04-07T13:43:17.674Z,17.30
2019-04-07T13:45:55.705Z,17.40
2019-04-07T13:48:35.888Z,17.40
2019-04-07T13:51:40.872Z,17.50
2019-04-07T13:54:21.161Z,17.40
2019-04-07T13:57:10.170Z,17.30
2019-04-07T14:00:07.671Z,16.90
2019-04-07T14:03:08.497Z,17.00
2019-04-07T14:05:46.713Z,17.00
2019-04-07T14:08:41.599Z,16.80
2019-04-07T14:11:28.629Z,16.90
2019-04-07T14:14:23.418Z,16.90
2019-04-07T14:17:15.262Z,16.60
2019-04-07T14:20:02.276Z,16.40
2019-04-07T14:23:06.167Z,16.40
2019-04-07T14:25:54.978Z,16.60
2019-04-07T14:28:31.147Z,16.40
2019-04-07T14:31:26.142Z,16.50
2019-04-07T14:34:03.583Z,16.50
2019-04-07T14:36:56.499Z,16.40
2019-04-07T14:39:45.583Z,16.30
2019-04-07T14:42:44.436Z,16.20
2019-04-07T14:45:21.719Z,16.40
2019-04-07T14:48:05.433Z,16.50
2019-04-07T14:50:48.442Z,16.50
2019-04-07T14:53:37.651Z,16.40
2019-04-07T14:56:26.293Z,16.50
2019-04-07T14:59:12.886Z,16.40
2019-04-07T15:02:00.487Z,16.50
2019-04-07T15:04:37.959Z,16.70
2019-04-07T15:07:27.928Z,16.70
2019-04-07T15:10:16.898Z,16.80
2019-04-07T15:12:53.216Z,16.90
2019-04-07T15:15:23.673Z,16.70
2019-04-07T15:17:53.376Z,16.70
2019-04-07T15:20:23.856Z,16.60
2019-04-07T15:22:53.942Z,16.50
2019-04-07T15:25:23.453Z,16.70
2019-04-07T15:27:56.498Z,16.70
2019-04-07T15:30:24.349Z,16.80
2019-04-07T15:32:57.825Z,16.80
2019-04-07T15:35:24.728Z,16.80
2019-04-07T15:37:54.938Z,16.90
2019-04-07T15:40:24.579Z,16.90
2019-04-07T15:42:54.118Z,16.90
2019-04-07T15:45:24.541Z,16.80
2019-04-07T15:47:54.073Z,16.70
2019-04-07T15:50:23.523Z,16.60
2019-04-07T15:52:54.089Z,16.70
2019-04-07T15:55:26.372Z,16.80
2019-04-07T15:57:57.093Z,16.70
2019-04-07T16:00:25.787Z,16.80
2019-04-07T16:02:55.146Z,16.80
2019-04-07T16:05:24.538Z,16.80
2019-04-07T16:07:55.376Z,16.90
2019-04-07T16:10:26.178Z,16.80
2019-04-07T16:12:58.124Z,16.60
2019-04-07T16:15:27.260Z,16.50
2019-04-07T16:17:56.911Z,16.40
2019-04-07T16:20:32.458Z,16.40
2019-04-07T16:22:57.990Z,16.40
2019-04-07T16:25:28.221Z,16.40
2019-04-07T16:27:58.825Z,16.40
2019-04-07T16:30:28.779Z,16.40
2019-04-07T16:33:01.860Z,16.40
2019-04-07T16:35:29.887Z,16.40
2019-04-07T16:38:01.489Z,16.40
2019-04-07T16:40:31.706Z,16.30
2019-04-07T16:43:09.836Z,16.20
2019-04-07T16:45:32.752Z,16.20
2019-04-07T16:48:04.518Z,16.20
2019-04-07T16:50:33.472Z,16.20
2019-04-07T16:53:04.553Z,16.20
2019-04-07T16:55:35.907Z,16.10
2019-04-07T16:58:06.329Z,16.10
2019-04-07T17:00:36.068Z,16.00
2019-04-07T17:03:07.701Z,16.00
2019-04-07T17:05:37.558Z,15.90
2019-04-07T17:08:07.399Z,15.90
2019-04-07T17:10:37.099Z,15.90
2019-04-07T17:13:17.854Z,15.80
2019-04-07T17:15:40.252Z,15.80
2019-04-07T17:18:11.184Z,15.80
2019-04-07T17:20:41.240Z,15.80
2019-04-07T17:23:11.161Z,15.80
2019-04-07T17:25:40.620Z,15.70
2019-04-07T17:28:12.106Z,15.50
2019-04-07T17:30:41.420Z,15.50
2019-04-07T17:33:11.255Z,15.50
2019-04-07T17:35:43.191Z,15.50
2019-04-07T17:38:13.072Z,15.40
2019-04-07T17:40:48.177Z,15.40
2019-04-07T17:43:46.641Z,15.40
2019-04-07T17:46:14.562Z,15.40
2019-04-07T17:48:56.761Z,15.30
2019-04-07T17:51:39.282Z,15.30
2019-04-07T17:54:34.534Z,15.20
2019-04-07T17:57:29.251Z,15.10
2019-04-07T18:00:11.745Z,15.00
2019-04-07T18:03:05.189Z,15.00
2019-04-07T18:06:00.406Z,14.90
2019-04-07T18:08:46.255Z,14.90
2019-04-07T18:11:35.081Z,14.80
2019-04-07T18:14:22.429Z,14.80
2019-04-07T18:17:00.853Z,14.80
2019-04-07T18:19:41.365Z,14.80
2019-04-07T18:22:30.012Z,14.70
2019-04-07T18:25:08.493Z,14.70
2019-04-07T18:27:57.239Z,14.70
2019-04-07T18:30:51.628Z,14.60
2019-04-07T18:33:38.368Z,14.60
2019-04-07T18:36:38.818Z,14.60
2019-04-07T18:39:25.904Z,14.60
2019-04-07T18:42:17.803Z,14.60
2019-04-07T18:44:56.169Z,14.50
2019-04-07T18:47:48.240Z,14.40
2019-04-07T18:50:46.555Z,14.40
2019-04-07T18:53:26.204Z,14.30
2019-04-07T18:56:14.143Z,14.30
2019-04-07T18:58:52.576Z,14.20
2019-04-07T19:01:40.341Z,14.10
2019-04-07T19:04:24.207Z,14.10
2019-04-07T19:07:18.536Z,14.10
2019-04-07T19:10:09.631Z,14.00
2019-04-07T19:13:08.069Z,13.90
2019-04-07T19:15:51.295Z,13.70
2019-04-07T19:18:42.145Z,13.60
2019-04-07T19:21:29.209Z,13.60
2019-04-07T19:24:30.169Z,13.40
2019-04-07T19:27:22.132Z,13.40
2019-04-07T19:30:11.601Z,13.30
2019-04-07T19:32:57.897Z,13.20
2019-04-07T19:35:49.945Z,13.10
2019-04-07T19:38:51.116Z,13.00
2019-04-07T19:41:46.892Z,13.00
2019-04-07T19:44:35.540Z,12.90
2019-04-07T19:47:16.670Z,12.90
2019-04-07T19:50:03.402Z,12.90
2019-04-07T19:52:50.107Z,12.80
2019-04-07T19:55:36.873Z,12.80
2019-04-07T19:58:25.072Z,12.70
2019-04-07T20:01:17.036Z,12.70
2019-04-07T20:04:14.605Z,12.70
2019-04-07T20:07:07.018Z,12.70
2019-04-07T20:09:54.667Z,12.60
2019-04-07T20:12:41.298Z,12.60
2019-04-07T20:15:45.720Z,12.50
2019-04-07T20:18:49.565Z,12.50
2019-04-07T20:21:38.284Z,12.50
2019-04-07T20:24:17.979Z,12.40
2019-04-07T20:27:05.035Z,12.30
2019-04-07T20:29:56.658Z,12.30
2019-04-07T20:32:43.712Z,12.30
2019-04-07T20:35:28.329Z,12.30
2019-04-07T20:38:15.924Z,12.20
2019-04-07T20:41:10.374Z,12.10
2019-04-07T20:43:56.781Z,12.20
2019-04-07T20:46:41.991Z,12.20
2019-04-07T20:49:43.578Z,12.20
2019-04-07T20:52:32.070Z,12.10
2019-04-07T20:55:39.988Z,12.20
2019-04-07T20:58:48.330Z,12.20
2019-04-07T21:01:34.101Z,12.10
2019-04-07T21:04:31.543Z,12.10
2019-04-07T21:07:16.407Z,12.10
2019-04-07T21:10:06.532Z,12.10
2019-04-07T21:13:05.555Z,12.10
2019-04-07T21:15:47.772Z,12.10
2019-04-07T21:18:28.893Z,12.10
2019-04-07T21:21:11.807Z,12.10
2019-04-07T21:23:48.060Z,12.00
2019-04-07T21:26:32.216Z,12.00
2019-04-07T21:29:28.051Z,12.00
2019-04-07T21:32:08.850Z,12.00
2019-04-07T21:35:10.939Z,12.10
2019-04-07T21:38:16.197Z,12.00
2019-04-07T21:41:06.129Z,12.00
2019-04-07T21:43:55.429Z,11.90
2019-04-07T21:46:46.422Z,11.90
2019-04-07T21:49:44.046Z,11.90
2019-04-07T21:52:35.658Z,11.90
2019-04-07T21:55:25.320Z,11.90
2019-04-07T21:58:05.121Z,11.90
2019-04-07T22:00:53.080Z,11.80
2019-04-07T22:03:39.957Z,11.80
2019-04-07T22:06:23.165Z,11.80
2019-04-07T22:09:00.320Z,11.80
2019-04-07T22:11:30.476Z,11.70
2019-04-07T22:14:00.923Z,11.70
2019-04-07T22:16:31.885Z,11.70
2019-04-07T22:19:01.400Z,11.70
2019-04-07T22:21:31.990Z,11.70
2019-04-07T22:24:02.004Z,11.60
2019-04-07T22:26:33.503Z,11.60
2019-04-07T22:29:04.541Z,11.60
2019-04-07T22:31:45.614Z,11.60
2019-04-07T22:34:16.411Z,11.60
2019-04-07T22:36:47.850Z,11.60
2019-04-07T22:39:18.448Z,11.50
2019-04-07T22:41:48.379Z,11.50
2019-04-07T22:44:19.908Z,11.50
2019-04-07T22:46:51.937Z,11.50
2019-04-07T22:49:20.230Z,11.50
2019-04-07T22:51:51.079Z,11.50
2019-04-07T22:54:22.069Z,11.50
2019-04-07T22:56:52.675Z,11.50
2019-04-07T22:59:22.076Z,11.50
2019-04-07T23:01:51.643Z,11.50
2019-04-07T23:04:22.169Z,11.40
2019-04-07T23:06:52.313Z,11.40
2019-04-07T23:09:23.002Z,11.30
2019-04-07T23:11:52.653Z,11.30
2019-04-07T23:14:22.164Z,11.30
2019-04-07T23:16:52.031Z,11.30
2019-04-07T23:19:21.393Z,11.30
2019-04-07T23:21:51.311Z,11.20
2019-04-07T23:24:21.291Z,11.30
2019-04-07T23:26:50.982Z,11.20
2019-04-07T23:29:21.726Z,11.20
2019-04-07T23:31:51.359Z,11.20
2019-04-07T23:34:21.189Z,11.10
2019-04-07T23:36:50.549Z,11.10
2019-04-07T23:39:19.952Z,11.10
2019-04-07T23:41:49.267Z,11.10
2019-04-07T23:44:18.961Z,11.10
2019-04-07T23:46:48.901Z,11.10
2019-04-07T23:49:19.105Z,11.20
2019-04-07T23:51:48.459Z,11.20
2019-04-07T23:54:18.378Z,11.30
2019-04-07T23:56:47.860Z,11.20
2019-04-07T23:59:17.206Z,11.30
